Time;durP1;ratioP1;P1;durP2;ratioP2;P2;SDS_P1;SDS_P2;PMS_P1;PMS_P2;Temp;Humidity;BMP_temperature;BMP_pressure;BME280_temperature;BME280_humidity;BME280_pressure;Samples;Min_cycle;Max_cycle;Signal;HPM_P1;HPM_P2
2022/12/15 00:40:11;;;;;;;19.45;11.52;;;;;;;-4.78;58.36;94245.97;5027744;28;20081;-77
2022/12/15 00:42:36;;;;;;;21.23;12.70;;;;;;;-4.26;58.70;94253.28;5033571;28;20567;-77
2022/12/15 00:45:02;;;;;;;17.35;10.15;;;;;;;-4.21;52.79;94240.78;5049991;28;20082;-77
2022/12/15 00:47:27;;;;;;;20.00;12.20;;;;;;;-4.09;55.73;94249.38;5031290;28;20073;-77
2022/12/15 01:20:17;;;;;;;20.50;11.07;;;;;;;-5.05;53.59;94299.88;5068707;28;20088;-77
2022/12/15 01:22:51;;;;;;;26.25;8.80;;;;;;;-5.49;51.51;94290.03;5053684;28;20116;-77
2022/12/15 01:25:17;;;;;;;135.50;13.63;;;;;;;-6.15;52.08;94309.34;5044476;28;20125;-77
2022/12/15 01:27:43;;;;;;;59.17;11.35;;;;;;;-5.83;57.22;94296.81;5030745;28;20155;-77
2022/12/15 01:30:10;;;;;;;206.80;15.18;;;;;;;-6.88;55.25;94311.69;5051671;28;20102;-77
2022/12/15 01:32:35;;;;;;;34.50;12.35;;;;;;;-6.19;57.77;94310.50;5033349;28;20062;-77
2022/12/15 01:35:01;;;;;;;16.52;10.38;;;;;;;-5.25;55.17;94303.91;5029978;28;20121;-76
2022/12/15 01:37:27;;;;;;;20.35;12.23;;;;;;;-4.99;49.64;94306.38;5054602;28;20146;-77
2022/12/15 01:42:36;;;;;;;26.58;13.07;;;;;;;-5.61;55.25;94319.44;5070349;28;20100;-77
2022/12/15 01:45:23;;;;;;;45.15;11.32;;;;;;;-5.03;58.77;94315.34;5066581;28;20093;-78
2022/12/15 01:47:50;;;;;;;110.47;13.05;;;;;;;-5.42;51.30;94313.78;5070961;28;20097;-77
2022/12/15 01:50:15;;;;;;;19.10;11.50;;;;;;;-4.53;52.30;94309.88;5050599;28;20185;-77
2022/12/15 01:52:41;;;;;;;17.42;10.95;;;;;;;-4.26;56.09;94308.69;5051870;28;20173;-78
2022/12/15 01:55:07;;;;;;;19.38;10.95;;;;;;;-4.34;54.94;94306.72;5042662;28;20093;-78
2022/12/15 01:57:32;;;;;;;17.95;10.85;;;;;;;-4.42;50.91;94309.03;5043798;28;20096;-77
2022/12/15 01:59:58;;;;;;;20.92;12.27;;;;;;;-4.22;55.20;94314.47;5053117;28;20140;-77
2022/12/15 02:02:25;;;;;;;16.83;9.90;;;;;;;-5.32;48.77;94321.72;5065757;28;20101;-77
2022/12/15 02:04:51;;;;;;;18.92;11.70;;;;;;;-5.18;55.21;94328.50;5070211;28;20103;-77
2022/12/15 02:07:17;;;;;;;17.13;10.57;;;;;;;-5.89;53.33;94331.78;5060203;28;20408;-77
2022/12/15 02:09:43;;;;;;;15.55;10.02;;;;;;;-5.63;49.16;94331.72;5068024;28;20101;-77
2022/12/15 02:12:18;;;;;;;18.73;11.68;;;;;;;-5.11;56.26;94332.28;5067454;28;20069;-77
2022/12/15 02:15:08;;;;;;;13.55;8.95;;;;;;;-5.74;46.52;94348.03;5069478;28;20120;-78
2022/12/15 02:17:58;;;;;;;18.02;11.25;;;;;;;-7.36;53.38;94341.50;5068612;28;20150;-76
2022/12/15 02:20:40;;;;;;;16.85;9.95;;;;;;;-6.67;52.49;94345.66;5067458;28;20221;-77
2022/12/15 02:23:12;;;;;;;18.00;10.85;;;;;;;-5.77;59.42;94343.06;5047564;28;20122;-77
2022/12/15 02:25:59;;;;;;;17.27;9.90;;;;;;;-5.43;58.93;94339.81;5069059;28;20093;-78
2022/12/15 02:28:49;;;;;;;14.25;9.13;;;;;;;-5.87;46.89;94343.69;5067230;28;20081;-77
2022/12/15 02:31:49;;;;;;;16.42;9.90;;;;;;;-7.20;48.43;94349.09;5038422;28;20720;-77
2022/12/15 02:36:56;;;;;;;15.40;9.35;;;;;;;-6.03;58.45;94353.47;5701122;23;1139022;-77
2022/12/15 02:39:22;;;;;;;21.15;12.07;;;;;;;-5.53;59.58;94347.44;4964009;28;20766;-77
2022/12/15 02:41:50;;;;;;;17.13;10.77;;;;;;;-5.35;56.69;94348.72;4966456;28;20103;-78
2022/12/15 02:44:31;;;;;;;14.68;9.80;;;;;;;-5.39;55.24;94346.44;4986392;28;20208;-78
2022/12/15 02:47:06;;;;;;;21.45;11.73;;;;;;;-5.28;59.39;94358.63;4987069;28;20161;-78
2022/12/15 02:49:40;;;;;;;14.38;9.00;;;;;;;-5.48;52.12;94360.91;4985955;28;20190;-78
2022/12/15 02:52:22;;;;;;;15.05;9.95;;;;;;;-6.41;46.21;94371.56;4983435;28;20095;-77
2022/12/15 02:55:08;;;;;;;14.40;8.82;;;;;;;-6.62;54.39;94372.06;4984888;28;20097;-77
2022/12/15 02:57:53;;;;;;;14.27;8.82;;;;;;;-7.20;49.24;94374.97;4966794;28;20095;-77
2022/12/15 03:00:18;;;;;;;13.98;9.05;;;;;;;-6.93;46.94;94368.09;4984846;28;20741;-78
2022/12/15 03:02:49;;;;;;;14.98;8.95;;;;;;;-6.39;59.30;94374.06;4984664;28;20100;-78
2022/12/15 03:05:15;;;;;;;16.17;9.63;;;;;;;-6.38;55.89;94370.53;4966976;28;20101;-78
2022/12/15 03:07:41;;;;;;;13.43;8.77;;;;;;;-6.89;52.28;94364.38;4984101;28;20081;-78
2022/12/15 03:10:07;;;;;;;15.45;9.18;;;;;;;-6.58;55.31;94369.28;4986533;28;20656;-78
2022/12/15 03:12:32;;;;;;;13.60;9.50;;;;;;;-6.44;52.34;94365.75;4969350;28;20088;-77
2022/12/15 03:14:58;;;;;;;16.05;10.00;;;;;;;-5.95;59.73;94371.13;4983337;28;20099;-78
2022/12/15 03:17:23;;;;;;;14.07;8.82;;;;;;;-6.14;49.83;94377.56;4981820;28;20091;-76
2022/12/15 03:19:48;;;;;;;14.13;9.30;;;;;;;-5.96;56.28;94385.81;4983924;28;20112;-78
2022/12/15 03:22:14;;;;;;;14.13;8.98;;;;;;;-5.95;50.19;94389.25;4988144;28;20507;-78
2022/12/15 03:24:39;;;;;;;16.02;9.60;;;;;;;-5.77;58.74;94387.94;4968441;28;20060;-78
2022/12/15 03:27:05;;;;;;;16.50;10.45;;;;;;;-5.71;59.01;94381.50;4984030;28;20094;-77
2022/12/15 03:29:30;;;;;;;15.65;9.63;;;;;;;-5.52;58.54;94388.84;4985690;28;20103;-77
2022/12/15 03:31:55;;;;;;;15.93;10.18;;;;;;;-5.59;56.28;94385.03;4981878;28;20058;-78
2022/12/15 03:34:21;;;;;;;21.13;12.85;;;;;;;-5.87;51.55;94395.53;4970296;28;20209;-78
2022/12/15 03:36:46;;;;;;;16.92;10.25;;;;;;;-5.74;57.06;94399.91;4983469;28;20033;-78
2022/12/15 03:39:12;;;;;;;17.55;9.43;;;;;;;-5.75;56.58;94398.22;4968695;28;20026;-77
2022/12/15 03:41:37;;;;;;;16.38;10.02;;;;;;;-6.02;49.87;94383.66;4969390;28;20368;-78
2022/12/15 03:44:03;;;;;;;18.02;9.90;;;;;;;-6.16;57.38;94382.84;4968863;28;20037;-78
2022/12/15 03:46:28;;;;;;;17.00;9.57;;;;;;;-5.92;59.95;94396.78;4959812;28;20049;-78
2022/12/15 03:48:53;;;;;;;16.08;10.38;;;;;;;-6.51;53.22;94394.66;4966501;28;20062;-78
2022/12/15 03:51:19;;;;;;;15.13;9.02;;;;;;;-6.33;58.37;94398.72;4964771;28;20665;-78
2022/12/15 03:53:46;;;;;;;16.25;8.90;;;;;;;-6.33;54.04;94390.94;4961708;28;20494;-77
2022/12/15 03:56:12;;;;;;;15.85;9.25;;;;;;;-6.07;58.87;94394.34;4984546;28;20031;-77
2022/12/15 03:58:38;;;;;;;16.58;9.75;;;;;;;-6.21;54.66;94395.28;4984466;28;20053;-77
2022/12/15 04:01:18;;;;;;;13.65;8.77;;;;;;;-6.36;59.01;94399.72;4950220;28;20109;-77
2022/12/15 04:03:43;;;;;;;13.93;8.60;;;;;;;-6.49;53.95;94399.75;4964645;28;20121;-78
2022/12/15 04:06:08;;;;;;;15.50;8.50;;;;;;;-6.07;59.90;94393.50;4979935;28;20065;-77
2022/12/15 04:08:34;;;;;;;15.57;8.20;;;;;;;-5.92;58.43;94392.44;4976325;28;20034;-77
2022/12/15 04:10:59;;;;;;;13.80;8.27;;;;;;;-5.78;60.12;94390.69;4983148;28;20041;-78
2022/12/15 04:13:25;;;;;;;18.55;9.02;;;;;;;-5.68;59.41;94385.69;4980496;28;20046;-77
2022/12/15 04:15:50;;;;;;;15.27;8.82;;;;;;;-5.67;58.02;94385.56;4964931;28;20042;-77
2022/12/15 04:18:15;;;;;;;14.63;8.65;;;;;;;-5.60;60.00;94396.34;4986480;28;20034;-78
2022/12/15 04:20:41;;;;;;;13.95;8.77;;;;;;;-5.63;56.88;94396.53;4976508;28;20302;-78
2022/12/15 04:23:06;;;;;;;13.95;8.32;;;;;;;-5.70;58.44;94400.50;4952048;28;20022;-78
2022/12/15 05:34:06;;;;;;;10.02;5.63;;;;;;;-6.37;59.35;94463.69;4970361;28;20257;-78
2022/12/15 05:36:32;;;;;;;11.10;6.07;;;;;;;-6.33;59.51;94463.50;4985335;28;20547;-78
2022/12/15 05:38:57;;;;;;;10.05;5.85;;;;;;;-6.46;57.50;94460.88;4982124;28;20645;-78
2022/12/15 05:41:23;;;;;;;9.52;5.57;;;;;;;-6.53;59.78;94465.59;4968287;28;20119;-77
2022/12/15 05:43:48;;;;;;;9.25;5.60;;;;;;;-6.68;59.00;94468.28;4986353;28;20141;-78
2022/12/15 05:46:14;;;;;;;9.35;5.75;;;;;;;-6.98;56.97;94461.56;4984501;28;20566;-78
2022/12/15 05:48:40;;;;;;;10.02;5.70;;;;;;;-7.02;56.72;94473.03;4968397;28;20087;-78
2022/12/15 05:51:09;;;;;;;9.27;5.55;;;;;;;-7.06;57.33;94466.41;4983957;28;20129;-78
2022/12/15 05:53:35;;;;;;;11.52;6.15;;;;;;;-6.94;60.33;94462.19;4981910;28;20103;-78
2022/12/15 05:56:05;;;;;;;12.15;6.85;;;;;;;-6.96;57.83;94458.88;4985573;28;20178;-78
2022/12/15 05:58:30;;;;;;;16.63;10.13;;;;;;;-6.96;57.24;94457.13;4969554;28;20129;-79
2022/12/15 06:01:22;;;;;;;14.75;7.00;;;;;;;-6.89;60.10;94463.56;4965712;28;20621;-78
2022/12/15 06:03:47;;;;;;;12.82;6.43;;;;;;;-6.79;61.28;94460.38;4966185;28;20133;-78
2022/12/15 06:06:13;;;;;;;11.50;6.38;;;;;;;-6.72;61.55;94460.81;4985929;28;20173;-78
2022/12/15 06:08:39;;;;;;;16.95;7.57;;;;;;;-6.74;61.74;94458.31;4985201;28;20103;-77
2022/12/15 06:11:05;;;;;;;12.27;7.32;;;;;;;-6.83;58.89;94467.50;4982084;28;20586;-78
2022/12/15 06:13:30;;;;;;;12.15;6.90;;;;;;;-6.84;59.76;94470.19;4964150;28;20095;-79
2022/12/15 06:16:01;;;;;;;11.90;6.78;;;;;;;-6.82;60.12;94474.38;4980674;28;20098;-78
2022/12/15 06:18:34;;;;;;;9.00;5.57;;;;;;;-6.78;59.70;94472.41;4985292;28;20117;-78
2022/12/15 06:21:04;;;;;;;10.30;5.55;;;;;;;-6.73;59.83;94482.47;4951559;28;20113;-79
2022/12/15 06:23:31;;;;;;;14.50;7.20;;;;;;;-6.76;58.74;94486.09;4966714;28;20543;-78
2022/12/15 06:25:57;;;;;;;12.57;6.70;;;;;;;-6.76;59.92;94486.91;4963442;28;20138;-77
2022/12/15 06:28:25;;;;;;;12.50;5.88;;;;;;;-6.77;60.15;94485.25;4967023;28;20129;-78
2022/12/15 06:31:01;;;;;;;11.88;6.53;;;;;;;-6.86;59.17;94492.78;4967125;28;20157;-78
2022/12/15 06:33:27;;;;;;;11.43;5.82;;;;;;;-6.87;59.10;94494.53;4984131;28;20103;-78
2022/12/15 06:35:52;;;;;;;11.07;5.28;;;;;;;-7.08;57.96;94501.88;4952183;28;20130;-78
2022/12/15 06:38:18;;;;;;;12.77;6.63;;;;;;;-7.24;52.94;94489.91;4985925;28;20122;-77
2022/12/15 06:40:44;;;;;;;8.60;5.22;;;;;;;-7.26;56.98;94489.19;4983971;28;20490;-78
2022/12/15 06:43:09;;;;;;;12.27;6.65;;;;;;;-7.26;58.80;94494.38;4968780;28;20079;-79
2022/12/15 06:45:35;;;;;;;10.15;5.85;;;;;;;-7.19;60.13;94500.81;4982283;28;20126;-78
2022/12/15 06:48:00;;;;;;;13.32;6.97;;;;;;;-7.19;58.54;94499.97;4983560;28;20079;-78
2022/12/15 06:50:26;;;;;;;12.85;6.75;;;;;;;-7.14;60.32;94503.94;4950289;28;20107;-77
2022/12/15 06:52:51;;;;;;;12.40;6.03;;;;;;;-7.08;59.81;94507.06;4965722;28;20118;-78
2022/12/15 06:55:16;;;;;;;11.07;5.80;;;;;;;-7.19;59.27;94502.56;4966582;28;20102;-79
2022/12/15 06:57:42;;;;;;;10.93;6.25;;;;;;;-7.14;58.44;94508.28;4965401;28;20376;-77
2022/12/15 07:00:08;;;;;;;10.45;6.38;;;;;;;-7.10;59.19;94501.97;4981310;28;20109;-78
2022/12/15 07:02:33;;;;;;;10.73;5.72;;;;;;;-7.05;60.45;94512.88;4981733;28;20113;-79
2022/12/15 07:04:59;;;;;;;9.82;5.57;;;;;;;-7.05;59.48;94510.31;4984959;28;20107;-78
2022/12/15 07:07:25;;;;;;;11.15;5.90;;;;;;;-7.03;59.71;94505.03;4982084;28;20075;-77
2022/12/15 07:09:50;;;;;;;14.82;7.22;;;;;;;-7.18;56.24;94507.66;4981243;28;20103;-78
2022/12/15 07:12:16;;;;;;;11.82;6.40;;;;;;;-7.08;59.03;94507.91;4983294;28;20090;-77
2022/12/15 07:14:42;;;;;;;11.73;6.10;;;;;;;-7.03;59.35;94512.81;4982526;28;20146;-77
2022/12/15 07:17:09;;;;;;;12.10;5.90;;;;;;;-6.98;61.15;94504.72;4981294;28;20114;-78
2022/12/15 07:19:35;;;;;;;10.90;5.85;;;;;;;-7.06;57.36;94506.06;4982529;28;20077;-77
2022/12/15 07:22:00;;;;;;;10.55;5.18;;;;;;;-7.02;60.44;94517.88;4979634;28;20111;-79
2022/12/15 07:24:26;;;;;;;9.63;5.35;;;;;;;-6.92;61.07;94515.53;4981377;28;20362;-77
2022/12/15 07:26:51;;;;;;;10.40;5.30;;;;;;;-6.88;60.83;94518.75;4979893;28;20106;-78
2022/12/15 07:29:17;;;;;;;10.35;5.60;;;;;;;-6.85;60.25;94525.50;4982184;28;20750;-78
2022/12/15 07:31:42;;;;;;;11.48;5.95;;;;;;;-6.85;60.00;94525.50;4978762;28;20083;-65
2022/12/15 07:34:07;;;;;;;14.80;6.20;;;;;;;-6.88;59.51;94522.19;4981440;28;20102;-67
2022/12/15 07:36:33;;;;;;;11.85;6.32;;;;;;;-7.05;61.02;94527.56;4979982;28;20091;-65
2022/12/15 07:38:59;;;;;;;18.13;10.43;;;;;;;-6.93;59.44;94526.00;4978512;28;20114;-64
2022/12/15 07:41:25;;;;;;;23.35;13.13;;;;;;;-6.94;59.54;94524.31;4976960;28;20393;-65
2022/12/15 07:43:50;;;;;;;20.73;12.48;;;;;;;-6.97;60.06;94529.69;4978771;28;20125;-66
2022/12/15 07:46:16;;;;;;;17.55;10.68;;;;;;;-6.96;60.66;94516.66;4977525;28;20603;-66
2022/12/15 07:48:42;;;;;;;15.98;9.35;;;;;;;-6.96;59.58;94521.84;4981472;28;20097;-65
2022/12/15 07:51:07;;;;;;;15.25;9.38;;;;;;;-6.99;60.19;94526.38;4979933;28;20086;-66
2022/12/15 07:53:33;;;;;;;17.08;9.98;;;;;;;-6.99;58.76;94524.63;4975068;28;20226;-65
2022/12/15 07:55:58;;;;;;;21.63;11.80;;;;;;;-7.01;59.76;94524.72;4979050;28;20454;-65
2022/12/15 07:58:27;;;;;;;19.88;11.80;;;;;;;-7.04;57.08;94532.66;4980698;28;20118;-64
2022/12/15 08:00:53;;;;;;;14.85;8.20;;;;;;;-7.30;48.63;94540.28;4983228;28;20741;-66
2022/12/15 08:03:18;;;;;;;17.80;10.10;;;;;;;-7.07;56.22;94538.03;4982308;28;20376;-67
2022/12/15 08:05:44;;;;;;;21.13;13.15;;;;;;;-6.98;58.82;94536.63;4977567;28;20122;-64
2022/12/15 08:08:10;;;;;;;23.33;14.05;;;;;;;-6.85;59.93;94549.63;4981871;28;20397;-67
2022/12/15 08:10:39;;;;;;;27.10;15.43;;;;;;;-6.63;60.91;94554.25;4984209;28;20639;-66
2022/12/15 08:13:04;;;;;;;27.60;15.27;;;;;;;-6.53;59.60;94556.25;4981966;28;20091;-66
2022/12/15 08:15:29;;;;;;;27.00;15.57;;;;;;;-6.41;58.96;94554.66;4986740;28;20454;-66
2022/12/15 08:17:55;;;;;;;30.10;16.90;;;;;;;-6.31;59.45;94555.72;4984862;28;20367;-65
2022/12/15 08:20:20;;;;;;;30.92;16.95;;;;;;;-6.21;58.24;94568.06;4984231;28;20083;-65
2022/12/15 08:22:45;;;;;;;29.88;17.85;;;;;;;-6.10;59.93;94560.41;4984671;28;20208;-65
2022/12/15 08:25:11;;;;;;;23.05;12.82;;;;;;;-6.08;57.76;94557.72;4983538;28;20106;-66
2022/12/15 08:27:36;;;;;;;28.77;15.65;;;;;;;-6.38;54.36;94562.22;4981938;28;20082;-67
2022/12/15 08:30:02;;;;;;;18.42;11.13;;;;;;;-6.33;51.63;94551.56;4981746;28;20122;-64
2022/12/15 08:32:27;;;;;;;31.10;19.48;;;;;;;-6.08;58.88;94555.13;4977481;28;20090;-67
2022/12/15 08:34:53;;;;;;;33.60;20.90;;;;;;;-5.80;59.29;94555.88;4980178;28;20126;-65
2022/12/15 08:37:18;;;;;;;32.40;21.08;;;;;;;-5.60;58.82;94563.16;4978924;28;20111;-67
2022/12/15 08:39:44;;;;;;;35.53;22.98;;;;;;;-5.41;58.93;94561.91;4979565;28;20454;-65
2022/12/15 08:42:09;;;;;;;35.35;22.88;;;;;;;-5.28;58.94;94548.06;4981189;28;20106;-66
2022/12/15 08:44:34;;;;;;;43.78;25.83;;;;;;;-5.11;58.78;94542.56;4982226;28;20085;-66
2022/12/15 08:47:00;;;;;;;29.77;18.10;;;;;;;-4.99;56.92;94556.44;4977502;28;20110;-65
2022/12/15 08:49:25;;;;;;;40.60;24.90;;;;;;;-4.88;58.05;94550.50;4979005;28;20129;-67
2022/12/15 08:51:50;;;;;;;41.15;26.35;;;;;;;-4.71;57.90;94556.25;4980575;28;20087;-65
2022/12/15 08:54:16;;;;;;;45.10;27.45;;;;;;;-4.61;57.44;94561.63;4981748;28;20102;-66
2022/12/15 08:56:42;;;;;;;46.65;29.80;;;;;;;-4.50;57.60;94571.22;4981686;28;20079;-66
2022/12/15 08:59:08;;;;;;;43.67;27.00;;;;;;;-4.44;56.72;94565.59;4979897;28;20086;-67
2022/12/15 09:01:38;;;;;;;38.78;21.98;;;;;;;-4.27;54.31;94559.19;4979734;28;20134;-66
2022/12/15 09:04:03;;;;;;;30.00;17.52;;;;;;;-4.21;51.56;94571.72;4986674;28;20094;-66
2022/12/15 09:06:31;;;;;;;31.52;20.48;;;;;;;-4.13;52.73;94583.34;4981563;28;20091;-66
2022/12/15 09:08:57;;;;;;;34.97;20.45;;;;;;;-4.11;52.29;94584.88;4981856;28;20696;-67
2022/12/15 09:11:24;;;;;;;26.85;17.55;;;;;;;-4.01;52.96;94589.41;4981647;28;20523;-66
2022/12/15 09:13:49;;;;;;;24.48;14.80;;;;;;;-4.10;46.63;94594.34;4982243;28;20111;-66
2022/12/15 09:16:15;;;;;;;21.17;12.95;;;;;;;-4.12;46.81;94598.81;4983882;28;20303;-66
2022/12/15 09:18:42;;;;;;;25.63;16.52;;;;;;;-3.95;48.48;94596.75;4976450;28;20118;-65
2022/12/15 09:21:07;;;;;;;31.77;18.92;;;;;;;-3.69;52.33;94602.63;4977755;28;20114;-68
2022/12/15 09:23:33;;;;;;;22.10;13.52;;;;;;;-3.56;48.22;94593.91;4980778;28;20144;-65
2022/12/15 09:26:00;;;;;;;32.90;17.50;;;;;;;-3.65;48.88;94600.63;4983990;28;20102;-66
2022/12/15 09:28:25;;;;;;;22.58;14.73;;;;;;;-3.68;45.76;94603.44;4981948;28;20536;-67
2022/12/15 09:30:51;;;;;;;38.38;24.30;;;;;;;-3.37;51.87;94610.75;4981694;28;20176;-65
2022/12/15 09:33:16;;;;;;;38.28;24.75;;;;;;;-3.17;51.98;94602.22;4977426;28;20113;-67
2022/12/15 09:35:49;;;;;;;45.40;28.45;;;;;;;-2.98;51.64;94599.97;4981272;28;20153;-66
2022/12/15 09:38:14;;;;;;;24.05;15.88;;;;;;;-2.82;48.86;94605.66;4981695;28;20547;-67
2022/12/15 09:40:40;;;;;;;15.90;9.23;;;;;;;-2.90;43.05;94608.03;4982300;28;20137;-65
2022/12/15 09:43:05;;;;;;;40.53;25.65;;;;;;;-2.63;52.18;94610.25;4980228;28;20321;-67
2022/12/15 09:45:36;;;;;;;39.90;25.27;;;;;;;-2.39;51.69;94606.66;4979782;28;20488;-66
2022/12/15 09:48:04;;;;;;;26.63;17.10;;;;;;;-2.20;47.98;94612.19;4980733;28;20097;-66
2022/12/15 09:50:47;;;;;;;39.60;26.23;;;;;;;-2.16;49.94;94614.44;4978943;28;20535;-67
2022/12/15 09:53:14;;;;;;;42.97;28.23;;;;;;;-1.86;53.37;94617.28;4966705;28;20102;-65
2022/12/15 09:55:41;;;;;;;33.50;21.38;;;;;;;-1.62;52.09;94606.59;4962389;28;20086;-65
2022/12/15 09:58:39;;;;;;;35.42;22.52;;;;;;;-1.44;50.44;94607.78;4957985;28;20117;-65
2022/12/15 10:01:28;;;;;;;40.10;24.13;;;;;;;-1.24;52.08;94606.97;4973013;28;20121;-67
2022/12/15 10:04:05;;;;;;;36.95;21.75;;;;;;;-1.03;50.41;94602.66;4957385;28;20083;-66
2022/12/15 10:06:38;;;;;;;31.05;20.80;;;;;;;-0.87;50.99;94603.06;4979970;28;20039;-65
2022/12/15 10:09:27;;;;;;;30.08;20.73;;;;;;;-0.73;49.36;94607.09;4963395;28;20060;-67
2022/12/15 10:11:59;;;;;;;;;;;;;;;-0.59;46.30;94610.28;4981836;28;20030;-65
2022/12/15 10:14:44;;;;;;;20.80;13.80;;;;;;;-0.50;51.53;94609.50;4981628;28;19984;-65
2022/12/15 10:17:23;;;;;;;10.68;6.15;;;;;;;-0.25;53.05;94612.56;4980679;28;20115;-67
2022/12/15 10:19:54;;;;;;;15.70;10.15;;;;;;;-0.49;43.92;94607.69;4975577;28;20459;-66
2022/12/15 10:22:28;;;;;;;10.23;5.88;;;;;;;-0.29;47.11;94616.41;4976405;28;20042;-65
2022/12/15 10:24:54;;;;;;;9.27;4.70;;;;;;;-0.15;51.13;94616.97;4980573;28;20084;-66
2022/12/15 10:27:26;;;;;;;19.58;12.88;;;;;;;-0.16;52.26;94621.41;4981592;28;20045;-66
2022/12/15 10:30:00;;;;;;;7.63;4.75;;;;;;;-0.20;43.68;94626.06;4976259;28;20039;-65
2022/12/15 10:32:31;;;;;;;5.28;2.80;;;;;;;-0.25;40.23;94620.41;4979524;28;20732;-66
2022/12/15 10:34:56;;;;;;;7.85;4.43;;;;;;;-0.15;47.68;94632.69;4981619;28;20418;-67
2022/12/15 10:37:23;;;;;;;6.00;3.67;;;;;;;-0.09;46.77;94640.00;4980938;28;20046;-65
2022/12/15 10:39:49;;;;;;;5.03;3.17;;;;;;;-0.64;41.74;94639.44;4979612;28;20462;-67
2022/12/15 10:42:24;;;;;;;9.20;6.22;;;;;;;-0.44;47.59;94632.47;4974927;28;22159;-66
2022/12/15 10:44:54;;;;;;;15.02;9.38;;;;;;;-0.07;48.87;94630.19;4976388;28;20022;-65
2022/12/15 10:47:32;;;;;;;20.02;13.70;;;;;;;0.26;51.86;94632.56;4982021;28;20038;-66
2022/12/15 10:50:24;;;;;;;30.70;20.48;;;;;;;0.35;50.50;94626.53;4979555;28;20246;-66
2022/12/15 10:52:49;;;;;;;48.55;33.95;;;;;;;0.38;53.78;94628.84;4981206;28;20049;-66
2022/12/15 10:55:40;;;;;;;30.20;20.75;;;;;;;0.78;52.02;94629.63;4982232;28;20030;-65
2022/12/15 10:58:19;;;;;;;31.27;22.13;;;;;;;1.05;49.25;94619.34;4982416;28;20545;-65
2022/12/15 11:00:45;;;;;;;;;;;;;;;1.10;51.17;94611.91;4979460;28;20415;-66
2022/12/15 11:03:24;;;;;;;35.13;23.85;;;;;;;1.06;49.39;94615.78;4983409;28;19961;-67
2022/12/15 11:05:52;;;;;;;20.73;13.05;;;;;;;1.18;53.35;94609.38;4979763;28;20041;-65
2022/12/15 11:08:17;;;;;;;19.10;13.63;;;;;;;1.29;45.69;94605.72;4981745;28;20041;-66
2022/12/15 11:13:35;;;;;;;48.05;35.45;;;;;;;1.52;52.26;94607.97;4979712;28;20505;-67
2022/12/15 11:16:15;;;;;;;50.83;35.72;;;;;;;1.58;52.50;94607.44;4980920;28;20066;-66
2022/12/15 11:18:57;;;;;;;19.45;13.52;;;;;;;1.77;49.24;94602.22;4979819;28;20317;-66
2022/12/15 11:21:31;;;;;;;26.40;18.05;;;;;;;1.79;47.96;94605.50;4978766;28;20121;-66
2022/12/15 11:24:16;;;;;;;7.40;5.07;;;;;;;2.05;39.22;94599.53;4965999;28;20036;-66
2022/12/15 11:26:47;;;;;;;45.88;32.65;;;;;;;2.14;49.54;94601.25;4981718;28;20058;-65
2022/12/15 11:29:26;;;;;;;29.15;20.60;;;;;;;2.16;44.49;94595.84;4975206;28;20085;-65
2022/12/15 11:31:52;;;;;;;;;;;;;;;2.27;48.46;94599.09;4979036;28;20113;-65
2022/12/15 11:34:20;;;;;;;56.17;37.03;;;;;;;2.58;48.38;94594.41;4975533;28;19938;-66
2022/12/15 11:37:22;;;;;;;41.95;29.67;;;;;;;2.60;46.67;94587.19;4981206;28;20518;-67
2022/12/15 11:40:01;;;;;;;51.65;34.97;;;;;;;3.63;48.33;94590.88;4982540;28;20072;-66
2022/12/15 11:42:48;;;;;;;30.80;20.88;;;;;;;6.12;39.11;94578.25;4977675;28;20079;-65
2022/12/15 11:45:36;;;;;;;6.38;4.25;;;;;;;9.44;33.35;94573.22;4978910;28;20096;-65
2022/12/15 11:48:12;;;;;;;19.88;13.95;;;;;;;12.17;32.62;94578.44;4977251;28;20356;-68
2022/12/15 11:50:56;;;;;;;33.58;26.02;;;;;;;13.81;27.30;94570.44;4969329;28;20156;-65
2022/12/15 11:53:46;;;;;;;32.72;24.88;;;;;;;15.56;24.84;94570.78;4982801;28;20628;-66
2022/12/15 11:56:34;;;;;;;25.10;18.67;;;;;;;17.14;25.63;94579.63;4983370;28;20096;-67
2022/12/15 11:59:21;;;;;;;21.85;15.68;;;;;;;18.15;21.48;94568.88;4978483;28;20093;-67
2022/12/15 12:02:24;;;;;;;21.85;16.95;;;;;;;18.87;14.14;94576.03;4977864;28;20565;-68
2022/12/15 12:05:14;;;;;;;20.80;16.52;;;;;;;19.33;21.38;94572.94;4980839;28;20139;-67
2022/12/15 12:07:48;;;;;;;35.90;28.23;;;;;;;19.64;18.82;94563.41;4984877;28;20073;-68
2022/12/15 12:10:19;;;;;;;28.52;22.25;;;;;;;20.63;15.81;94561.06;4983114;28;20078;-69
2022/12/15 12:13:04;;;;;;;18.73;15.15;;;;;;;21.87;15.96;94560.94;4983180;28;20397;-69
2022/12/15 12:15:40;;;;;;;16.63;12.43;;;;;;;22.37;17.62;94557.47;4983768;28;20425;-64
2022/12/15 12:18:27;;;;;;;24.70;19.02;;;;;;;21.80;12.56;94552.31;4978140;28;20076;-65
2022/12/15 12:21:01;;;;;;;2.30;2.10;;;;;;;22.22;13.20;94546.72;4985334;28;20049;-65
2022/12/15 12:23:26;;;;;;;13.93;11.60;;;;;;;23.51;14.52;94544.16;4981035;28;20075;-65
2022/12/15 12:25:59;;;;;;;23.50;18.23;;;;;;;24.37;13.87;94542.63;4984901;28;20330;-64
2022/12/15 12:28:42;;;;;;;30.45;23.67;;;;;;;24.60;13.75;94539.34;4966613;28;20137;-65
2022/12/15 12:31:15;;;;;;;25.05;20.73;;;;;;;25.71;12.20;94541.59;4982580;28;20579;-66
2022/12/15 12:33:44;;;;;;;36.95;29.20;;;;;;;25.98;9.76;94536.44;4981684;28;20538;-65
2022/12/15 12:36:13;;;;;;;26.67;21.40;;;;;;;26.88;9.88;94526.03;4981890;28;20072;-67
2022/12/15 12:38:54;;;;;;;37.58;30.13;;;;;;;26.95;9.51;94528.34;4978275;28;20057;-65
2022/12/15 12:41:44;;;;;;;31.27;24.85;;;;;;;27.43;9.82;94523.34;4982254;28;20483;-66
2022/12/15 12:44:24;;;;;;;31.75;24.85;;;;;;;27.44;9.39;94522.22;4981760;28;20210;-66
2022/12/15 12:46:51;;;;;;;31.95;26.63;;;;;;;26.92;9.55;94518.84;4982433;28;20050;-67
2022/12/15 12:49:27;;;;;;;24.47;21.77;;;;;;;27.46;9.42;94522.72;4984613;28;20308;-67
2022/12/15 12:51:53;;;;;;;34.80;28.70;;;;;;;27.73;8.45;94521.72;4981023;28;20038;-73
2022/12/15 12:54:31;;;;;;;23.75;19.67;;;;;;;26.75;8.61;94514.88;4983448;28;20054;-74
2022/12/15 12:56:56;;;;;;;30.65;25.70;;;;;;;27.15;9.76;94509.88;4984899;28;20049;-73
2022/12/15 12:59:28;;;;;;;28.98;22.00;;;;;;;27.14;10.24;94509.06;4986245;28;20053;-75
2022/12/15 13:02:09;;;;;;;31.02;25.70;;;;;;;27.69;9.56;94500.78;4976893;28;20510;-73
2022/12/15 13:04:37;;;;;;;28.63;22.45;;;;;;;27.25;9.18;94495.94;4982287;28;20026;-72
2022/12/15 13:07:04;;;;;;;35.38;23.48;;;;;;;28.14;8.67;94486.91;4963777;28;20043;-70
2022/12/15 13:10:12;;;;;;;25.52;22.38;;;;;;;28.36;8.63;94492.59;4979155;28;20668;-72
2022/12/15 13:12:58;;;;;;;28.45;22.48;;;;;;;28.61;8.60;94491.00;4975638;28;20466;-70
2022/12/15 13:15:27;;;;;;;22.02;17.88;;;;;;;28.33;8.47;94474.91;4980338;28;20141;-73
2022/12/15 13:18:14;;;;;;;24.27;18.80;;;;;;;28.75;8.44;94468.94;4981396;28;20402;-71
2022/12/15 13:20:39;;;;;;;27.67;20.10;;;;;;;29.26;7.51;94460.16;4980623;28;20041;-77
2022/12/15 13:23:20;;;;;;;17.00;13.25;;;;;;;29.55;8.12;94455.03;4984952;28;20073;-78
2022/12/15 13:25:52;;;;;;;12.57;11.20;;;;;;;29.66;7.22;94450.78;4985685;28;20038;-78
2022/12/15 13:28:29;;;;;;;14.35;11.32;;;;;;;30.13;7.22;94443.59;4982488;28;20090;-77
2022/12/15 13:31:20;;;;;;;18.27;15.57;;;;;;;30.03;7.93;94446.72;4982642;28;20104;-77
2022/12/15 13:33:49;;;;;;;15.90;13.40;;;;;;;30.05;4.82;94438.97;4967895;28;20029;-78
2022/12/15 13:36:39;;;;;;;22.63;17.80;;;;;;;28.75;8.27;94438.84;4979801;28;20088;-78
2022/12/15 13:39:13;;;;;;;20.20;16.92;;;;;;;28.93;8.13;94441.56;4987041;28;20046;-78
2022/12/15 13:41:50;;;;;;;14.55;13.00;;;;;;;29.33;6.89;94434.19;4985856;28;20058;-78
2022/12/15 13:44:30;;;;;;;11.60;8.07;;;;;;;29.47;7.21;94433.97;4968280;28;20053;-77
2022/12/15 13:47:03;;;;;;;17.60;13.27;;;;;;;29.36;7.88;94433.53;4969205;28;20053;-77
2022/12/15 13:50:06;;;;;;;18.27;15.02;;;;;;;29.58;8.21;94437.94;4971924;28;20040;-77
2022/12/15 13:52:50;;;;;;;16.98;14.30;;;;;;;29.93;7.89;94426.78;4984429;28;20750;-77
2022/12/15 13:55:21;;;;;;;19.90;13.52;;;;;;;30.08;7.41;94424.59;4955671;28;20042;-77
2022/12/15 13:58:02;;;;;;;8.75;7.38;;;;;;;30.06;7.35;94424.13;4968615;28;20054;-77
2022/12/15 14:00:27;;;;;;;16.15;13.23;;;;;;;29.81;7.66;94413.00;4983890;28;20588;-77
2022/12/15 14:03:08;;;;;;;13.87;11.50;;;;;;;30.26;7.10;94411.56;4983978;28;20038;-77
2022/12/15 14:05:33;;;;;;;19.23;14.85;;;;;;;30.28;7.43;94403.00;4983151;28;20104;-78
2022/12/15 14:07:59;;;;;;;14.67;12.57;;;;;;;30.38;7.57;94408.06;4983215;28;20045;-78